sensor_id;sensor_type;location;lat;lon;timestamp;P1;durP1;ratioP1;P2;durP2;ratioP2
74401;SDS011;62837;51.082;13.744;2022-08-19T00:01:09;6.50;;;5.00;;
74401;SDS011;62837;51.082;13.744;2022-08-19T00:03:53;8.40;;;5.90;;
74401;SDS011;62837;51.082;13.744;2022-08-19T00:06:24;7.50;;;5.70;;
74401;SDS011;62837;51.082;13.744;2022-08-19T00:08:57;7.50;;;5.30;;
74401;SDS011;62837;51.082;13.744;2022-08-19T00:11:28;7.50;;;5.00;;
74401;SDS011;62837;51.082;13.744;2022-08-19T00:14:00;8.00;;;6.00;;
74401;SDS011;62837;51.082;13.744;2022-08-19T00:16:30;8.70;;;6.70;;
74401;SDS011;62837;51.082;13.744;2022-08-19T00:19:02;6.20;;;5.50;;
74401;SDS011;62837;51.082;13.744;2022-08-19T00:21:33;6.80;;;5.10;;
74401;SDS011;62837;51.082;13.744;2022-08-19T00:24:06;6.50;;;5.70;;
74401;SDS011;62837;51.082;13.744;2022-08-19T00:26:38;7.00;;;5.60;;
74401;SDS011;62837;51.082;13.744;2022-08-19T00:29:11;8.10;;;6.30;;
74401;SDS011;62837;51.082;13.744;2022-08-19T00:31:43;9.50;;;6.40;;
74401;SDS011;62837;51.082;13.744;2022-08-19T00:34:17;6.90;;;6.20;;
74401;SDS011;62837;51.082;13.744;2022-08-19T00:36:48;11.30;;;6.30;;
74401;SDS011;62837;51.082;13.744;2022-08-19T00:39:19;6.90;;;5.10;;
74401;SDS011;62837;51.082;13.744;2022-08-19T00:41:50;5.90;;;5.30;;
74401;SDS011;62837;51.082;13.744;2022-08-19T00:44:22;8.10;;;6.80;;
74401;SDS011;62837;51.082;13.744;2022-08-19T00:46:55;11.00;;;6.30;;
74401;SDS011;62837;51.082;13.744;2022-08-19T00:49:29;10.60;;;7.30;;
74401;SDS011;62837;51.082;13.744;2022-08-19T00:52:04;10.00;;;6.90;;
74401;SDS011;62837;51.082;13.744;2022-08-19T00:54:38;6.70;;;5.70;;
74401;SDS011;62837;51.082;13.744;2022-08-19T00:59:42;7.80;;;6.50;;
74401;SDS011;62837;51.082;13.744;2022-08-19T01:02:30;7.00;;;5.70;;
74401;SDS011;62837;51.082;13.744;2022-08-19T01:07:33;7.90;;;6.50;;
74401;SDS011;62837;51.082;13.744;2022-08-19T01:10:08;7.40;;;5.60;;
74401;SDS011;62837;51.082;13.744;2022-08-19T01:12:40;8.00;;;6.90;;
74401;SDS011;62837;51.082;13.744;2022-08-19T01:15:11;8.30;;;6.30;;
74401;SDS011;62837;51.082;13.744;2022-08-19T01:17:46;8.00;;;5.20;;
74401;SDS011;62837;51.082;13.744;2022-08-19T01:20:19;7.50;;;6.00;;
74401;SDS011;62837;51.082;13.744;2022-08-19T01:22:52;8.10;;;6.40;;
74401;SDS011;62837;51.082;13.744;2022-08-19T01:25:26;6.80;;;5.30;;
74401;SDS011;62837;51.082;13.744;2022-08-19T01:28:00;9.00;;;7.80;;
74401;SDS011;62837;51.082;13.744;2022-08-19T01:30:37;7.20;;;6.50;;
74401;SDS011;62837;51.082;13.744;2022-08-19T01:33:17;7.40;;;6.10;;
74401;SDS011;62837;51.082;13.744;2022-08-19T01:35:48;8.60;;;7.20;;
74401;SDS011;62837;51.082;13.744;2022-08-19T01:38:21;8.10;;;6.20;;
74401;SDS011;62837;51.082;13.744;2022-08-19T01:40:54;6.80;;;5.80;;
74401;SDS011;62837;51.082;13.744;2022-08-19T01:43:25;7.30;;;5.90;;
74401;SDS011;62837;51.082;13.744;2022-08-19T01:45:55;8.50;;;5.60;;
74401;SDS011;62837;51.082;13.744;2022-08-19T01:48:26;8.70;;;7.10;;
74401;SDS011;62837;51.082;13.744;2022-08-19T01:51:01;7.20;;;5.40;;
74401;SDS011;62837;51.082;13.744;2022-08-19T01:53:32;9.50;;;7.10;;
74401;SDS011;62837;51.082;13.744;2022-08-19T01:56:04;10.40;;;6.00;;
74401;SDS011;62837;51.082;13.744;2022-08-19T01:58:36;8.90;;;6.20;;
74401;SDS011;62837;51.082;13.744;2022-08-19T02:01:10;6.60;;;5.40;;
74401;SDS011;62837;51.082;13.744;2022-08-19T02:03:41;10.50;;;7.80;;
74401;SDS011;62837;51.082;13.744;2022-08-19T02:06:13;10.30;;;8.40;;
74401;SDS011;62837;51.082;13.744;2022-08-19T02:08:44;8.50;;;5.50;;
74401;SDS011;62837;51.082;13.744;2022-08-19T02:11:20;10.40;;;7.20;;
74401;SDS011;62837;51.082;13.744;2022-08-19T02:13:55;8.20;;;6.40;;
74401;SDS011;62837;51.082;13.744;2022-08-19T02:16:26;8.50;;;6.90;;
74401;SDS011;62837;51.082;13.744;2022-08-19T02:18:58;10.40;;;7.10;;
74401;SDS011;62837;51.082;13.744;2022-08-19T02:21:29;10.20;;;7.20;;
74401;SDS011;62837;51.082;13.744;2022-08-19T02:24:01;9.40;;;8.20;;
74401;SDS011;62837;51.082;13.744;2022-08-19T02:26:33;7.30;;;5.50;;
74401;SDS011;62837;51.082;13.744;2022-08-19T02:29:04;9.80;;;7.80;;
74401;SDS011;62837;51.082;13.744;2022-08-19T02:31:35;9.40;;;7.30;;
74401;SDS011;62837;51.082;13.744;2022-08-19T02:34:06;9.90;;;8.80;;
74401;SDS011;62837;51.082;13.744;2022-08-19T02:36:36;9.60;;;7.90;;
74401;SDS011;62837;51.082;13.744;2022-08-19T02:39:09;9.60;;;7.40;;
74401;SDS011;62837;51.082;13.744;2022-08-19T02:41:40;9.80;;;7.50;;
74401;SDS011;62837;51.082;13.744;2022-08-19T02:44:11;10.60;;;8.30;;
74401;SDS011;62837;51.082;13.744;2022-08-19T02:49:50;7.90;;;6.70;;
74401;SDS011;62837;51.082;13.744;2022-08-19T02:52:20;8.30;;;7.30;;
74401;SDS011;62837;51.082;13.744;2022-08-19T02:54:52;8.00;;;7.10;;
74401;SDS011;62837;51.082;13.744;2022-08-19T02:57:25;10.70;;;8.00;;
74401;SDS011;62837;51.082;13.744;2022-08-19T02:59:56;11.40;;;8.70;;
74401;SDS011;62837;51.082;13.744;2022-08-19T03:02:29;9.40;;;7.70;;
74401;SDS011;62837;51.082;13.744;2022-08-19T03:04:59;10.80;;;8.80;;
74401;SDS011;62837;51.082;13.744;2022-08-19T03:07:31;12.60;;;10.60;;
74401;SDS011;62837;51.082;13.744;2022-08-19T03:10:02;9.10;;;7.00;;
74401;SDS011;62837;51.082;13.744;2022-08-19T03:12:36;10.00;;;8.30;;
74401;SDS011;62837;51.082;13.744;2022-08-19T03:15:08;10.00;;;7.30;;
74401;SDS011;62837;51.082;13.744;2022-08-19T03:17:39;8.90;;;7.60;;
74401;SDS011;62837;51.082;13.744;2022-08-19T03:20:11;11.40;;;8.40;;
74401;SDS011;62837;51.082;13.744;2022-08-19T03:22:41;8.80;;;7.90;;
74401;SDS011;62837;51.082;13.744;2022-08-19T03:25:12;11.90;;;8.30;;
74401;SDS011;62837;51.082;13.744;2022-08-19T03:27:44;9.80;;;8.40;;
74401;SDS011;62837;51.082;13.744;2022-08-19T03:30:16;9.80;;;8.30;;
74401;SDS011;62837;51.082;13.744;2022-08-19T03:32:50;7.30;;;5.60;;
74401;SDS011;62837;51.082;13.744;2022-08-19T03:35:23;9.60;;;8.00;;
74401;SDS011;62837;51.082;13.744;2022-08-19T03:37:55;9.80;;;8.00;;
74401;SDS011;62837;51.082;13.744;2022-08-19T03:40:26;9.40;;;7.90;;
74401;SDS011;62837;51.082;13.744;2022-08-19T03:42:58;10.00;;;8.20;;
74401;SDS011;62837;51.082;13.744;2022-08-19T03:45:29;9.80;;;7.20;;
74401;SDS011;62837;51.082;13.744;2022-08-19T03:48:00;11.50;;;7.90;;
74401;SDS011;62837;51.082;13.744;2022-08-19T03:50:31;11.10;;;8.80;;
74401;SDS011;62837;51.082;13.744;2022-08-19T03:53:07;9.00;;;7.30;;
74401;SDS011;62837;51.082;13.744;2022-08-19T03:55:40;9.20;;;7.50;;
74401;SDS011;62837;51.082;13.744;2022-08-19T03:58:12;8.70;;;7.20;;
74401;SDS011;62837;51.082;13.744;2022-08-19T04:00:43;6.90;;;6.00;;
74401;SDS011;62837;51.082;13.744;2022-08-19T04:03:13;11.30;;;8.60;;
74401;SDS011;62837;51.082;13.744;2022-08-19T04:05:46;9.30;;;7.70;;
74401;SDS011;62837;51.082;13.744;2022-08-19T04:08:17;11.70;;;8.30;;
74401;SDS011;62837;51.082;13.744;2022-08-19T04:10:50;9.40;;;7.40;;
74401;SDS011;62837;51.082;13.744;2022-08-19T04:13:21;11.20;;;8.90;;
74401;SDS011;62837;51.082;13.744;2022-08-19T04:15:51;10.90;;;7.00;;
74401;SDS011;62837;51.082;13.744;2022-08-19T04:18:24;7.10;;;6.20;;
74401;SDS011;62837;51.082;13.744;2022-08-19T04:21:03;10.20;;;8.20;;
74401;SDS011;62837;51.082;13.744;2022-08-19T04:23:34;10.00;;;7.80;;
74401;SDS011;62837;51.082;13.744;2022-08-19T04:26:13;13.10;;;8.30;;
74401;SDS011;62837;51.082;13.744;2022-08-19T04:28:46;11.70;;;9.70;;
74401;SDS011;62837;51.082;13.744;2022-08-19T04:31:20;10.70;;;9.50;;
74401;SDS011;62837;51.082;13.744;2022-08-19T04:33:54;13.00;;;9.50;;
74401;SDS011;62837;51.082;13.744;2022-08-19T04:36:26;8.80;;;6.50;;
74401;SDS011;62837;51.082;13.744;2022-08-19T04:39:00;11.60;;;9.70;;
74401;SDS011;62837;51.082;13.744;2022-08-19T04:41:33;12.30;;;8.90;;
74401;SDS011;62837;51.082;13.744;2022-08-19T04:44:22;9.40;;;7.80;;
74401;SDS011;62837;51.082;13.744;2022-08-19T04:46:53;12.00;;;7.80;;
74401;SDS011;62837;51.082;13.744;2022-08-19T04:49:24;10.20;;;7.90;;
74401;SDS011;62837;51.082;13.744;2022-08-19T04:51:55;7.80;;;7.00;;
74401;SDS011;62837;51.082;13.744;2022-08-19T04:54:27;11.70;;;9.30;;
74401;SDS011;62837;51.082;13.744;2022-08-19T04:57:07;10.80;;;7.90;;
74401;SDS011;62837;51.082;13.744;2022-08-19T04:59:39;8.50;;;7.60;;
74401;SDS011;62837;51.082;13.744;2022-08-19T05:02:10;9.10;;;7.70;;
74401;SDS011;62837;51.082;13.744;2022-08-19T05:04:42;10.30;;;7.40;;
74401;SDS011;62837;51.082;13.744;2022-08-19T05:07:13;11.00;;;7.40;;
74401;SDS011;62837;51.082;13.744;2022-08-19T05:09:44;9.70;;;7.50;;
74401;SDS011;62837;51.082;13.744;2022-08-19T05:12:26;8.20;;;6.50;;
74401;SDS011;62837;51.082;13.744;2022-08-19T05:14:57;8.70;;;7.70;;
74401;SDS011;62837;51.082;13.744;2022-08-19T05:17:29;8.00;;;6.60;;
74401;SDS011;62837;51.082;13.744;2022-08-19T05:20:06;10.30;;;6.70;;
74401;SDS011;62837;51.082;13.744;2022-08-19T05:22:56;7.60;;;6.00;;
74401;SDS011;62837;51.082;13.744;2022-08-19T05:25:27;9.00;;;7.60;;
74401;SDS011;62837;51.082;13.744;2022-08-19T05:27:58;9.40;;;5.70;;
74401;SDS011;62837;51.082;13.744;2022-08-19T05:30:29;7.70;;;6.50;;
74401;SDS011;62837;51.082;13.744;2022-08-19T05:33:14;8.20;;;7.30;;
74401;SDS011;62837;51.082;13.744;2022-08-19T05:35:45;11.90;;;9.30;;
74401;SDS011;62837;51.082;13.744;2022-08-19T05:40:46;12.10;;;7.40;;
74401;SDS011;62837;51.082;13.744;2022-08-19T05:43:17;6.40;;;5.80;;
74401;SDS011;62837;51.082;13.744;2022-08-19T05:45:47;9.70;;;7.50;;
74401;SDS011;62837;51.082;13.744;2022-08-19T05:48:19;11.60;;;9.50;;
74401;SDS011;62837;51.082;13.744;2022-08-19T05:50:50;10.60;;;8.00;;
74401;SDS011;62837;51.082;13.744;2022-08-19T05:53:21;10.00;;;8.00;;
74401;SDS011;62837;51.082;13.744;2022-08-19T05:55:51;10.60;;;7.90;;
74401;SDS011;62837;51.082;13.744;2022-08-19T05:58:26;9.20;;;7.50;;
74401;SDS011;62837;51.082;13.744;2022-08-19T06:00:58;10.80;;;8.30;;
74401;SDS011;62837;51.082;13.744;2022-08-19T06:03:32;12.80;;;8.20;;
74401;SDS011;62837;51.082;13.744;2022-08-19T06:06:05;9.10;;;7.40;;
74401;SDS011;62837;51.082;13.744;2022-08-19T06:08:38;6.50;;;5.60;;
74401;SDS011;62837;51.082;13.744;2022-08-19T06:11:14;10.60;;;6.20;;
74401;SDS011;62837;51.082;13.744;2022-08-19T06:13:47;9.60;;;7.80;;
74401;SDS011;62837;51.082;13.744;2022-08-19T06:16:26;7.20;;;5.40;;
74401;SDS011;62837;51.082;13.744;2022-08-19T06:19:00;8.40;;;6.00;;
74401;SDS011;62837;51.082;13.744;2022-08-19T06:21:34;7.70;;;5.30;;
74401;SDS011;62837;51.082;13.744;2022-08-19T06:24:08;6.50;;;4.10;;
74401;SDS011;62837;51.082;13.744;2022-08-19T06:26:41;7.00;;;5.80;;
74401;SDS011;62837;51.082;13.744;2022-08-19T06:29:19;6.40;;;5.00;;
74401;SDS011;62837;51.082;13.744;2022-08-19T06:31:53;7.80;;;4.50;;
74401;SDS011;62837;51.082;13.744;2022-08-19T06:34:25;8.80;;;6.00;;
74401;SDS011;62837;51.082;13.744;2022-08-19T06:36:58;6.40;;;5.50;;
74401;SDS011;62837;51.082;13.744;2022-08-19T06:39:32;6.80;;;4.90;;
74401;SDS011;62837;51.082;13.744;2022-08-19T06:42:06;7.00;;;5.10;;
74401;SDS011;62837;51.082;13.744;2022-08-19T06:44:40;6.80;;;5.20;;
74401;SDS011;62837;51.082;13.744;2022-08-19T06:47:16;7.90;;;5.50;;
74401;SDS011;62837;51.082;13.744;2022-08-19T06:49:55;7.20;;;5.50;;
74401;SDS011;62837;51.082;13.744;2022-08-19T06:52:33;8.10;;;6.50;;
74401;SDS011;62837;51.082;13.744;2022-08-19T06:55:06;8.70;;;6.20;;
74401;SDS011;62837;51.082;13.744;2022-08-19T06:57:37;8.60;;;6.70;;
74401;SDS011;62837;51.082;13.744;2022-08-19T07:00:09;8.10;;;6.20;;
74401;SDS011;62837;51.082;13.744;2022-08-19T07:02:41;8.80;;;6.90;;
74401;SDS011;62837;51.082;13.744;2022-08-19T07:05:22;9.50;;;7.00;;
74401;SDS011;62837;51.082;13.744;2022-08-19T07:07:53;9.10;;;7.10;;
74401;SDS011;62837;51.082;13.744;2022-08-19T07:10:31;9.30;;;7.50;;
74401;SDS011;62837;51.082;13.744;2022-08-19T07:15:39;10.50;;;7.90;;
74401;SDS011;62837;51.082;13.744;2022-08-19T07:18:10;10.10;;;7.50;;
74401;SDS011;62837;51.082;13.744;2022-08-19T07:20:41;13.10;;;7.90;;
74401;SDS011;62837;51.082;13.744;2022-08-19T07:23:12;10.50;;;8.30;;
74401;SDS011;62837;51.082;13.744;2022-08-19T07:25:43;9.50;;;7.30;;
74401;SDS011;62837;51.082;13.744;2022-08-19T07:28:20;10.80;;;9.10;;
74401;SDS011;62837;51.082;13.744;2022-08-19T07:30:54;10.60;;;8.20;;
74401;SDS011;62837;51.082;13.744;2022-08-19T07:33:25;9.90;;;8.00;;
74401;SDS011;62837;51.082;13.744;2022-08-19T07:35:59;11.50;;;8.90;;
74401;SDS011;62837;51.082;13.744;2022-08-19T07:38:30;12.70;;;9.40;;
74401;SDS011;62837;51.082;13.744;2022-08-19T07:41:01;15.50;;;10.10;;
74401;SDS011;62837;51.082;13.744;2022-08-19T07:43:32;12.80;;;9.70;;
74401;SDS011;62837;51.082;13.744;2022-08-19T07:46:03;11.80;;;9.20;;
74401;SDS011;62837;51.082;13.744;2022-08-19T07:48:39;12.70;;;9.10;;
74401;SDS011;62837;51.082;13.744;2022-08-19T07:51:13;12.90;;;10.20;;
74401;SDS011;62837;51.082;13.744;2022-08-19T07:54:03;15.00;;;9.60;;
74401;SDS011;62837;51.082;13.744;2022-08-19T07:56:34;9.90;;;8.70;;
74401;SDS011;62837;51.082;13.744;2022-08-19T07:59:06;9.40;;;8.40;;
74401;SDS011;62837;51.082;13.744;2022-08-19T08:01:38;11.70;;;9.40;;
74401;SDS011;62837;51.082;13.744;2022-08-19T08:04:09;11.30;;;9.30;;
74401;SDS011;62837;51.082;13.744;2022-08-19T08:06:57;13.00;;;8.50;;
74401;SDS011;62837;51.082;13.744;2022-08-19T08:09:46;11.70;;;9.00;;
74401;SDS011;62837;51.082;13.744;2022-08-19T08:12:18;11.90;;;8.30;;
74401;SDS011;62837;51.082;13.744;2022-08-19T08:15:04;10.30;;;7.70;;
74401;SDS011;62837;51.082;13.744;2022-08-19T08:17:39;12.70;;;9.80;;
74401;SDS011;62837;51.082;13.744;2022-08-19T08:20:18;11.70;;;8.40;;
74401;SDS011;62837;51.082;13.744;2022-08-19T08:22:50;8.90;;;6.90;;
74401;SDS011;62837;51.082;13.744;2022-08-19T08:25:38;9.60;;;7.40;;
74401;SDS011;62837;51.082;13.744;2022-08-19T08:28:10;9.80;;;7.80;;
74401;SDS011;62837;51.082;13.744;2022-08-19T08:30:45;9.70;;;8.10;;
74401;SDS011;62837;51.082;13.744;2022-08-19T08:33:18;10.00;;;7.80;;
74401;SDS011;62837;51.082;13.744;2022-08-19T08:36:01;10.80;;;7.40;;
74401;SDS011;62837;51.082;13.744;2022-08-19T08:38:33;7.20;;;5.70;;
74401;SDS011;62837;51.082;13.744;2022-08-19T08:41:09;9.40;;;8.10;;
74401;SDS011;62837;51.082;13.744;2022-08-19T08:43:48;9.90;;;7.60;;
74401;SDS011;62837;51.082;13.744;2022-08-19T08:46:23;7.60;;;6.50;;
74401;SDS011;62837;51.082;13.744;2022-08-19T08:49:01;9.30;;;7.80;;
74401;SDS011;62837;51.082;13.744;2022-08-19T08:51:37;8.40;;;7.00;;
74401;SDS011;62837;51.082;13.744;2022-08-19T08:54:15;9.70;;;7.20;;
74401;SDS011;62837;51.082;13.744;2022-08-19T08:56:49;9.30;;;6.60;;
74401;SDS011;62837;51.082;13.744;2022-08-19T08:59:24;9.90;;;7.50;;
74401;SDS011;62837;51.082;13.744;2022-08-19T09:02:00;9.90;;;7.70;;
74401;SDS011;62837;51.082;13.744;2022-08-19T09:04:31;6.60;;;5.40;;
74401;SDS011;62837;51.082;13.744;2022-08-19T09:07:07;8.50;;;7.30;;
74401;SDS011;62837;51.082;13.744;2022-08-19T09:10:06;10.10;;;7.40;;
74401;SDS011;62837;51.082;13.744;2022-08-19T09:12:55;7.60;;;5.90;;
74401;SDS011;62837;51.082;13.744;2022-08-19T09:15:36;9.00;;;7.70;;
74401;SDS011;62837;51.082;13.744;2022-08-19T09:20:46;8.80;;;6.70;;
74401;SDS011;62837;51.082;13.744;2022-08-19T09:23:17;7.40;;;6.60;;
74401;SDS011;62837;51.082;13.744;2022-08-19T09:25:53;10.40;;;7.30;;
74401;SDS011;62837;51.082;13.744;2022-08-19T09:28:25;8.10;;;7.00;;
74401;SDS011;62837;51.082;13.744;2022-08-19T09:30:59;9.80;;;8.60;;
74401;SDS011;62837;51.082;13.744;2022-08-19T09:33:29;10.40;;;7.60;;
74401;SDS011;62837;51.082;13.744;2022-08-19T09:36:05;10.30;;;7.30;;
74401;SDS011;62837;51.082;13.744;2022-08-19T09:38:48;9.80;;;7.70;;
74401;SDS011;62837;51.082;13.744;2022-08-19T09:41:19;7.50;;;6.70;;
74401;SDS011;62837;51.082;13.744;2022-08-19T09:43:56;8.80;;;7.00;;
74401;SDS011;62837;51.082;13.744;2022-08-19T09:46:28;9.10;;;7.60;;
74401;SDS011;62837;51.082;13.744;2022-08-19T09:48:59;9.20;;;7.70;;
74401;SDS011;62837;51.082;13.744;2022-08-19T09:51:33;9.30;;;6.80;;
74401;SDS011;62837;51.082;13.744;2022-08-19T09:54:06;8.90;;;7.40;;
74401;SDS011;62837;51.082;13.744;2022-08-19T09:56:38;17.30;;;7.60;;
74401;SDS011;62837;51.082;13.744;2022-08-19T09:59:09;10.40;;;7.20;;
74401;SDS011;62837;51.082;13.744;2022-08-19T10:01:40;8.40;;;6.80;;
74401;SDS011;62837;51.082;13.744;2022-08-19T10:04:12;11.00;;;6.60;;
74401;SDS011;62837;51.082;13.744;2022-08-19T10:06:49;12.20;;;7.50;;
74401;SDS011;62837;51.082;13.744;2022-08-19T10:09:24;9.10;;;6.90;;
74401;SDS011;62837;51.082;13.744;2022-08-19T10:12:01;8.00;;;6.80;;
74401;SDS011;62837;51.082;13.744;2022-08-19T10:14:38;10.60;;;7.20;;
74401;SDS011;62837;51.082;13.744;2022-08-19T10:17:08;7.50;;;6.40;;
74401;SDS011;62837;51.082;13.744;2022-08-19T10:24:53;7.70;;;5.00;;
74401;SDS011;62837;51.082;13.744;2022-08-19T10:27:24;6.80;;;4.90;;
74401;SDS011;62837;51.082;13.744;2022-08-19T10:29:58;5.20;;;4.60;;
74401;SDS011;62837;51.082;13.744;2022-08-19T10:32:30;6.60;;;5.40;;
74401;SDS011;62837;51.082;13.744;2022-08-19T10:35:02;6.50;;;4.70;;
74401;SDS011;62837;51.082;13.744;2022-08-19T10:37:36;8.20;;;5.70;;
74401;SDS011;62837;51.082;13.744;2022-08-19T10:40:23;9.10;;;5.50;;
74401;SDS011;62837;51.082;13.744;2022-08-19T10:42:55;6.20;;;5.10;;
74401;SDS011;62837;51.082;13.744;2022-08-19T10:45:26;6.60;;;5.40;;
74401;SDS011;62837;51.082;13.744;2022-08-19T10:47:56;12.30;;;6.50;;
74401;SDS011;62837;51.082;13.744;2022-08-19T10:50:29;6.00;;;4.60;;
74401;SDS011;62837;51.082;13.744;2022-08-19T10:53:17;9.00;;;5.80;;
74401;SDS011;62837;51.082;13.744;2022-08-19T10:55:53;6.80;;;5.40;;
74401;SDS011;62837;51.082;13.744;2022-08-19T10:58:41;4.80;;;4.30;;
74401;SDS011;62837;51.082;13.744;2022-08-19T11:01:12;6.60;;;5.00;;
74401;SDS011;62837;51.082;13.744;2022-08-19T11:03:43;6.20;;;4.70;;
74401;SDS011;62837;51.082;13.744;2022-08-19T11:06:14;6.00;;;5.00;;
74401;SDS011;62837;51.082;13.744;2022-08-19T11:08:45;5.30;;;4.70;;
74401;SDS011;62837;51.082;13.744;2022-08-19T11:11:16;5.20;;;4.60;;
74401;SDS011;62837;51.082;13.744;2022-08-19T11:13:47;5.60;;;4.90;;
74401;SDS011;62837;51.082;13.744;2022-08-19T11:16:19;6.40;;;4.90;;
74401;SDS011;62837;51.082;13.744;2022-08-19T11:18:53;6.10;;;5.40;;
74401;SDS011;62837;51.082;13.744;2022-08-19T11:21:27;7.10;;;5.50;;
74401;SDS011;62837;51.082;13.744;2022-08-19T11:24:00;6.50;;;5.90;;
74401;SDS011;62837;51.082;13.744;2022-08-19T11:26:33;9.60;;;6.20;;
74401;SDS011;62837;51.082;13.744;2022-08-19T11:29:07;7.00;;;5.60;;
74401;SDS011;62837;51.082;13.744;2022-08-19T11:31:42;5.40;;;4.80;;
74401;SDS011;62837;51.082;13.744;2022-08-19T11:34:17;6.80;;;5.30;;
74401;SDS011;62837;51.082;13.744;2022-08-19T11:36:49;8.20;;;6.70;;
74401;SDS011;62837;51.082;13.744;2022-08-19T11:39:21;6.70;;;5.80;;
74401;SDS011;62837;51.082;13.744;2022-08-19T11:41:53;8.00;;;6.80;;
74401;SDS011;62837;51.082;13.744;2022-08-19T11:44:24;9.80;;;6.30;;
74401;SDS011;62837;51.082;13.744;2022-08-19T11:46:55;7.10;;;6.20;;
74401;SDS011;62837;51.082;13.744;2022-08-19T11:49:35;7.40;;;6.00;;
74401;SDS011;62837;51.082;13.744;2022-08-19T11:52:06;7.60;;;6.60;;
74401;SDS011;62837;51.082;13.744;2022-08-19T11:57:07;9.00;;;6.80;;
74401;SDS011;62837;51.082;13.744;2022-08-19T11:59:38;6.60;;;5.50;;
74401;SDS011;62837;51.082;13.744;2022-08-19T12:02:09;7.10;;;6.20;;
74401;SDS011;62837;51.082;13.744;2022-08-19T12:04:43;8.00;;;7.20;;
74401;SDS011;62837;51.082;13.744;2022-08-19T12:07:13;9.50;;;7.20;;
74401;SDS011;62837;51.082;13.744;2022-08-19T12:09:44;11.40;;;8.70;;
74401;SDS011;62837;51.082;13.744;2022-08-19T12:12:15;10.40;;;8.40;;
74401;SDS011;62837;51.082;13.744;2022-08-19T12:14:46;12.40;;;9.90;;
74401;SDS011;62837;51.082;13.744;2022-08-19T12:17:24;14.80;;;9.30;;
74401;SDS011;62837;51.082;13.744;2022-08-19T12:19:56;14.40;;;10.00;;
74401;SDS011;62837;51.082;13.744;2022-08-19T12:22:26;12.00;;;8.80;;
74401;SDS011;62837;51.082;13.744;2022-08-19T12:24:57;11.50;;;9.30;;
74401;SDS011;62837;51.082;13.744;2022-08-19T12:27:28;14.70;;;11.00;;
74401;SDS011;62837;51.082;13.744;2022-08-19T12:30:11;11.60;;;9.70;;
74401;SDS011;62837;51.082;13.744;2022-08-19T12:32:42;19.80;;;12.10;;
74401;SDS011;62837;51.082;13.744;2022-08-19T12:35:13;15.00;;;10.20;;
74401;SDS011;62837;51.082;13.744;2022-08-19T12:37:44;17.60;;;11.70;;
74401;SDS011;62837;51.082;13.744;2022-08-19T12:40:24;14.70;;;11.70;;
74401;SDS011;62837;51.082;13.744;2022-08-19T12:42:57;12.30;;;9.90;;
74401;SDS011;62837;51.082;13.744;2022-08-19T12:45:28;14.10;;;10.10;;
74401;SDS011;62837;51.082;13.744;2022-08-19T12:47:59;13.00;;;9.80;;
74401;SDS011;62837;51.082;13.744;2022-08-19T12:50:50;11.40;;;9.00;;
74401;SDS011;62837;51.082;13.744;2022-08-19T12:53:22;13.10;;;9.90;;
74401;SDS011;62837;51.082;13.744;2022-08-19T12:55:55;13.50;;;10.00;;
74401;SDS011;62837;51.082;13.744;2022-08-19T12:58:27;15.60;;;11.60;;
74401;SDS011;62837;51.082;13.744;2022-08-19T13:01:07;13.10;;;10.90;;
74401;SDS011;62837;51.082;13.744;2022-08-19T13:03:39;13.80;;;10.00;;
74401;SDS011;62837;51.082;13.744;2022-08-19T13:06:11;12.60;;;9.50;;
74401;SDS011;62837;51.082;13.744;2022-08-19T13:08:46;12.80;;;10.30;;
74401;SDS011;62837;51.082;13.744;2022-08-19T13:11:18;14.00;;;8.90;;
74401;SDS011;62837;51.082;13.744;2022-08-19T13:13:52;10.80;;;9.40;;
74401;SDS011;62837;51.082;13.744;2022-08-19T13:16:24;13.30;;;8.60;;
74401;SDS011;62837;51.082;13.744;2022-08-19T13:18:55;12.90;;;10.00;;
74401;SDS011;62837;51.082;13.744;2022-08-19T13:23:57;14.30;;;11.20;;
74401;SDS011;62837;51.082;13.744;2022-08-19T13:26:28;15.30;;;10.70;;
74401;SDS011;62837;51.082;13.744;2022-08-19T13:28:59;15.60;;;11.80;;
74401;SDS011;62837;51.082;13.744;2022-08-19T13:31:48;14.20;;;9.90;;
74401;SDS011;62837;51.082;13.744;2022-08-19T13:34:39;12.90;;;10.90;;
74401;SDS011;62837;51.082;13.744;2022-08-19T13:37:10;14.20;;;11.30;;
74401;SDS011;62837;51.082;13.744;2022-08-19T13:39:41;14.00;;;11.00;;
74401;SDS011;62837;51.082;13.744;2022-08-19T13:42:12;11.90;;;10.10;;
74401;SDS011;62837;51.082;13.744;2022-08-19T13:44:45;15.30;;;11.30;;
74401;SDS011;62837;51.082;13.744;2022-08-19T13:47:16;15.30;;;11.20;;
74401;SDS011;62837;51.082;13.744;2022-08-19T13:49:48;12.90;;;10.90;;
74401;SDS011;62837;51.082;13.744;2022-08-19T13:52:19;13.50;;;11.00;;
74401;SDS011;62837;51.082;13.744;2022-08-19T13:54:50;11.80;;;9.40;;
74401;SDS011;62837;51.082;13.744;2022-08-19T13:57:21;13.80;;;10.90;;
74401;SDS011;62837;51.082;13.744;2022-08-19T13:59:52;13.60;;;11.40;;
74401;SDS011;62837;51.082;13.744;2022-08-19T14:02:22;14.10;;;10.30;;
74401;SDS011;62837;51.082;13.744;2022-08-19T14:04:53;12.70;;;10.20;;
74401;SDS011;62837;51.082;13.744;2022-08-19T14:07:25;12.90;;;9.50;;
74401;SDS011;62837;51.082;13.744;2022-08-19T14:09:56;15.00;;;12.60;;
74401;SDS011;62837;51.082;13.744;2022-08-19T14:12:27;16.00;;;11.00;;
74401;SDS011;62837;51.082;13.744;2022-08-19T14:14:59;17.30;;;11.00;;
74401;SDS011;62837;51.082;13.744;2022-08-19T14:17:31;18.80;;;13.80;;
74401;SDS011;62837;51.082;13.744;2022-08-19T14:20:03;15.60;;;11.30;;
74401;SDS011;62837;51.082;13.744;2022-08-19T14:22:46;16.80;;;12.20;;
74401;SDS011;62837;51.082;13.744;2022-08-19T14:25:19;19.10;;;13.50;;
74401;SDS011;62837;51.082;13.744;2022-08-19T14:27:51;16.00;;;11.40;;
74401;SDS011;62837;51.082;13.744;2022-08-19T14:30:24;15.10;;;11.20;;
74401;SDS011;62837;51.082;13.744;2022-08-19T14:32:57;18.00;;;13.50;;
74401;SDS011;62837;51.082;13.744;2022-08-19T14:35:29;16.60;;;12.50;;
74401;SDS011;62837;51.082;13.744;2022-08-19T14:38:02;19.20;;;14.80;;
74401;SDS011;62837;51.082;13.744;2022-08-19T14:40:34;19.50;;;13.00;;
74401;SDS011;62837;51.082;13.744;2022-08-19T14:43:07;21.30;;;14.80;;
74401;SDS011;62837;51.082;13.744;2022-08-19T14:45:38;17.80;;;12.90;;
74401;SDS011;62837;51.082;13.744;2022-08-19T14:48:10;15.80;;;11.80;;
74401;SDS011;62837;51.082;13.744;2022-08-19T14:50:46;20.90;;;13.20;;
74401;SDS011;62837;51.082;13.744;2022-08-19T14:53:17;16.30;;;12.80;;
74401;SDS011;62837;51.082;13.744;2022-08-19T14:55:47;17.80;;;12.70;;
74401;SDS011;62837;51.082;13.744;2022-08-19T14:58:18;19.60;;;12.30;;
74401;SDS011;62837;51.082;13.744;2022-08-19T15:00:58;20.70;;;14.60;;
74401;SDS011;62837;51.082;13.744;2022-08-19T15:03:30;18.00;;;13.80;;
74401;SDS011;62837;51.082;13.744;2022-08-19T15:06:02;23.00;;;15.20;;
74401;SDS011;62837;51.082;13.744;2022-08-19T15:08:35;10.80;;;9.40;;
74401;SDS011;62837;51.082;13.744;2022-08-19T15:11:09;12.70;;;9.60;;
74401;SDS011;62837;51.082;13.744;2022-08-19T15:13:42;16.50;;;11.80;;
74401;SDS011;62837;51.082;13.744;2022-08-19T15:16:14;14.50;;;11.10;;
74401;SDS011;62837;51.082;13.744;2022-08-19T15:18:46;11.00;;;9.60;;
74401;SDS011;62837;51.082;13.744;2022-08-19T15:21:18;16.90;;;12.80;;
74401;SDS011;62837;51.082;13.744;2022-08-19T15:23:55;17.70;;;10.20;;
74401;SDS011;62837;51.082;13.744;2022-08-19T15:26:33;16.20;;;11.60;;
74401;SDS011;62837;51.082;13.744;2022-08-19T15:29:04;17.70;;;13.40;;